Wetterdaten: August 2014
Datum Temp Feuchte Luftdruck Regen Wind Richtung Sonnenschein UV Solar Windben
01.08.2014 20,0 C 75 % 1010,3 hPa 0,0 l/m 3,5 km/h SO 10,08 h 2,9 UV-I 393 W/m 4,8 km/h
02.08.2014 21,6 C 74 % 1007,0 hPa 0,0 l/m 4,2 km/h S-SO 8,83 h 2,4 UV-I 333 W/m 14,5 km/h
03.08.2014 19,6 C 80 % 1010,2 hPa 5,0 l/m 0,9 km/h NW 4,42 h 2,7 UV-I 300 W/m 2,8 km/h
04.08.2014 17,8 C 83 % 1014,6 hPa 0,2 l/m 0,3 km/h NW 3,67 h 2,4 UV-I 236 W/m 1,6 km/h
05.08.2014 16,2 C 82 % 1018,1 hPa 28,6 l/m 0,5 km/h N-NW 5,00 h 2,5 UV-I 307 W/m 2,0 km/h
06.08.2014 17,1 C 80 % 1015,2 hPa 0,0 l/m 0,5 km/h S-SO 7,08 h 2,3 UV-I 302 W/m 2,4 km/h
07.08.2014 17,4 C 83 % 1014,1 hPa 1,2 l/m 0,2 km/h NW 5,50 h 2,2 UV-I 281 W/m 3,2 km/h
08.08.2014 20,0 C 76 % 1011,1 hPa 0,0 l/m 3,0 km/h SO 8,00 h 2,9 UV-I 365 W/m 6,4 km/h
09.08.2014 17,8 C 77 % 1010,0 hPa 3,0 l/m 1,3 km/h S 6,17 h 2,5 UV-I 324 W/m 7,3 km/h
10.08.2014 19,2 C 80 % 1005,1 hPa 7,4 l/m 12,8 km/h S-SO 4,08 h 2,6 UV-I 248 W/m 22,1 km/h
11.08.2014 14,6 C 75 % 1010,8 hPa 0,2 l/m 6,9 km/h S 5,58 h 2,4 UV-I 312 W/m 14,9 km/h
12.08.2014 14,0 C 78 % 1009,9 hPa 5,4 l/m 3,9 km/h S 4,83 h 2,2 UV-I 305 W/m 8,1 km/h
13.08.2014 14,6 C 82 % 1005,0 hPa 1,0 l/m 0,9 km/h S 4,00 h 2,0 UV-I 253 W/m 3,2 km/h
14.08.2014 14,4 C 81 % 1009,4 hPa 0,2 l/m 0,3 km/h S-SW 2,50 h 1,9 UV-I 221 W/m 3,6 km/h
15.08.2014 13,4 C 85 % 1011,5 hPa 4,6 l/m 0,0 km/h NW 3,42 h 1,9 UV-I 218 W/m 0,0 km/h
16.08.2014 14,6 C 77 % 1016,2 hPa 0,4 l/m 3,1 km/h W-NW 2,00 h 2,2 UV-I 209 W/m 14,9 km/h
17.08.2014 14,1 C 78 % 1008,3 hPa 0,0 l/m 11,1 km/h S 2,00 h 1,4 UV-I 165 W/m 23,4 km/h
18.08.2014 12,9 C 80 % 1005,9 hPa 1,6 l/m 9,0 km/h S 2,00 h 1,6 UV-I 217 W/m 24,5 km/h
19.08.2014 10,4 C 84 % 1010,3 hPa 7,8 l/m 2,8 km/h S 2,17 h 1,2 UV-I 140 W/m 4,8 km/h
20.08.2014 11,6 C 78 % 1015,1 hPa 0,4 l/m 1,3 km/h S 6,58 h 2,1 UV-I 341 W/m 9,3 km/h
21.08.2014 12,0 C 79 % 1015,3 hPa 0,2 l/m 1,5 km/h S 4,50 h 2,0 UV-I 283 W/m 5,2 km/h
22.08.2014 12,7 C 78 % 1011,8 hPa 3,4 l/m 4,3 km/h S 4,75 h 2,0 UV-I 246 W/m 7,7 km/h
23.08.2014 11,4 C 83 % 1012,7 hPa 1,6 l/m 0,3 km/h S-SW 5,00 h 1,8 UV-I 280 W/m 2,4 km/h
24.08.2014 11,6 C 79 % 1017,3 hPa 2,6 l/m 1,6 km/h W 2,83 h 1,9 UV-I 222 W/m 7,3 km/h
25.08.2014 11,5 C 82 % 1012,8 hPa 3,0 l/m 0,0 km/h N 3,25 h 1,8 UV-I 193 W/m 0,0 km/h
26.08.2014 12,6 C 84 % 1007,1 hPa 8,4 l/m 0,0 km/h SO 0,00 h 1,2 UV-I 112 W/m 0,0 km/h
27.08.2014 12,2 C 77 % 1016,2 hPa 0,0 l/m 0,2 km/h NW 9,25 h 2,3 UV-I 379 W/m 2,0 km/h
28.08.2014 15,1 C 80 % 1015,5 hPa 0,2 l/m 3,4 km/h S-SO 5,42 h 2,3 UV-I 291 W/m 5,6 km/h
29.08.2014 15,2 C 82 % 1014,8 hPa 1,0 l/m 1,2 km/h W 1,83 h 1,6 UV-I 175 W/m 7,6 km/h
30.08.2014 15,3 C 81 % 1015,2 hPa 5,2 l/m 6,1 km/h S 0,58 h 1,1 UV-I 91 W/m 15,3 km/h
31.08.2014 13,6 C 80 % 1013,8 hPa 2,8 l/m 2,9 km/h NW 2,17 h 1,6 UV-I 169 W/m 6,0 km/h
Min-Datum 25.08.14 01.08.14 10.08.14 25 Tage 01.08.14 - - - - 01.08.14
Min-Zeit 06:30 16:25 22:00 - 00:00 - - - - 00:00
Minimum 4,7 C 51 % 1002,1 hPa - 0,0 km/h - - - - 0,0 km/h
Max-Datum 03.08.14 04.08.14 05.08.14 05.08.14 10.08.14 - 01.08.14 10.08.14 16.08.14 17.08.14
Max-Zeit 14:45 08:25 23:30 05:00 12:45 - 20:55 14:05 13:00 10:30
Maximum 26,3 C 92 % 1019,0 hPa 28,6 l/m 27,1 km/h
S-SO
- 10,00 h 6,3 UV-I 1092 W/m 49,9 km/h
S
Durchschnitt 15,0 C 80 % 1012,0 hPa #95,4 l/m 2,8 km/h S #137:30 h 2,1 UV-I 255 W/m 7,5 km/h

Durchschnitt Minimum Temp.10,6 C
Durchschnitt Maximum Temp.20,1 C